Time;durP1;ratioP1;P1;durP2;ratioP2;P2;SDS_P1;SDS_P2;PMS_P1;PMS_P2;Temp;Humidity;BMP_temperature;BMP_pressure;BME280_temperature;BME280_humidity;BME280_pressure;Samples;Min_cycle;Max_cycle;Signal;HPM_P1;HPM_P2
2023/01/20 00:01:47;;;;;;;22.55;12.05;;;;;;;3.82;46.40;100921.41;7393412;19;20482;-59
2023/01/20 00:04:14;;;;;;;23.85;11.93;;;;;;;3.79;46.50;100924.72;7391947;19;20003;-59
2023/01/20 00:06:40;;;;;;;26.70;12.57;;;;;;;3.72;46.47;100922.38;7393712;19;20466;-60
2023/01/20 00:09:06;;;;;;;19.58;11.52;;;;;;;3.71;46.64;100926.94;7393386;19;19999;-60
2023/01/20 00:11:33;;;;;;;20.58;12.27;;;;;;;3.70;46.68;100938.84;7394373;19;20018;-59
2023/01/20 00:14:01;;;;;;;24.55;13.57;;;;;;;3.86;46.29;100933.22;7391576;19;20014;-59
2023/01/20 00:16:27;;;;;;;26.63;13.07;;;;;;;3.86;46.16;100934.03;7392703;19;20002;-59
2023/01/20 00:18:53;;;;;;;24.88;13.63;;;;;;;3.88;46.30;100941.84;7392212;19;20069;-59
2023/01/20 00:21:20;;;;;;;24.00;13.93;;;;;;;3.73;46.73;100937.44;7391286;19;20003;-59
2023/01/20 00:23:46;;;;;;;26.75;13.55;;;;;;;3.78;46.46;100940.09;7391471;19;20019;-60
2023/01/20 00:26:15;;;;;;;22.65;13.35;;;;;;;3.70;46.73;100936.16;7393493;19;20010;-59
2023/01/20 00:28:41;;;;;;;29.35;15.65;;;;;;;3.71;46.67;100943.13;7392585;19;20372;-59
2023/01/20 00:31:11;;;;;;;30.17;13.90;;;;;;;3.67;46.82;100946.72;7393109;19;20062;-59
2023/01/20 00:33:37;;;;;;;31.10;15.40;;;;;;;3.54;47.09;100950.94;7391892;19;19994;-60
2023/01/20 00:36:03;;;;;;;22.90;13.40;;;;;;;3.68;46.84;100961.81;7390782;19;20021;-60
2023/01/20 00:38:29;;;;;;;25.40;14.57;;;;;;;3.57;47.13;100961.16;7391794;19;19998;-60
2023/01/20 00:40:55;;;;;;;25.15;14.13;;;;;;;3.49;47.12;100969.91;7390821;19;20035;-60
2023/01/20 00:43:21;;;;;;;26.92;14.32;;;;;;;3.63;46.95;100976.19;7391000;19;19994;-60
2023/01/20 00:45:47;;;;;;;30.48;14.82;;;;;;;3.57;47.12;100969.25;7392286;19;20453;-60
2023/01/20 00:48:13;;;;;;;31.50;15.93;;;;;;;3.48;47.17;100969.09;7391114;19;19991;-60
2023/01/20 00:50:38;;;;;;;26.65;14.48;;;;;;;3.57;47.08;100979.22;7392746;19;20135;-59
2023/01/20 00:53:04;;;;;;;28.00;15.32;;;;;;;3.68;46.51;100986.13;7389640;19;20497;-59
2023/01/20 00:55:30;;;;;;;25.92;15.15;;;;;;;3.56;46.93;100986.53;7391245;19;20522;-59
2023/01/20 00:57:56;;;;;;;25.13;15.65;;;;;;;3.56;47.00;100997.34;7389954;19;20337;-60
2023/01/20 01:00:22;;;;;;;29.15;15.35;;;;;;;3.51;46.98;100998.19;7391400;19;20054;-60
2023/01/20 01:02:48;;;;;;;29.80;16.33;;;;;;;3.61;46.79;101002.66;7390882;19;19991;-59
2023/01/20 01:05:13;;;;;;;33.15;17.95;;;;;;;3.64;46.60;101007.50;7392346;19;20001;-58
2023/01/20 01:07:39;;;;;;;29.10;15.98;;;;;;;3.58;46.83;101014.03;7389378;19;20453;-59
2023/01/20 01:10:05;;;;;;;30.08;16.60;;;;;;;3.45;47.01;101010.16;7391789;19;20002;-59
2023/01/20 01:12:31;;;;;;;32.65;17.98;;;;;;;3.48;47.05;101019.56;7390697;19;20006;-59
2023/01/20 01:14:57;;;;;;;29.85;17.35;;;;;;;3.56;46.82;101021.63;7387869;19;20082;-61
2023/01/20 01:17:23;;;;;;;33.28;17.90;;;;;;;3.58;46.73;101018.66;7390810;19;20028;-60
2023/01/20 01:19:52;;;;;;;33.65;17.65;;;;;;;3.53;46.77;101028.38;7390749;19;20038;-61
2023/01/20 01:22:19;;;;;;;31.30;18.58;;;;;;;3.55;47.10;101024.63;7390912;19;20138;-60
2023/01/20 01:24:45;;;;;;;31.40;18.35;;;;;;;3.52;46.82;101021.41;7391400;19;20015;-60
2023/01/20 01:27:11;;;;;;;33.70;19.45;;;;;;;3.45;47.24;101025.53;7389866;19;20009;-60
2023/01/20 01:29:37;;;;;;;40.53;20.33;;;;;;;3.45;47.02;101030.94;7391196;19;20459;-61
2023/01/20 01:32:03;;;;;;;34.40;19.95;;;;;;;3.47;47.01;101026.03;7390241;19;20074;-61
2023/01/20 01:34:29;;;;;;;36.03;20.80;;;;;;;3.46;47.03;101037.94;7391256;19;20005;-60
2023/01/20 01:36:55;;;;;;;33.55;19.67;;;;;;;3.46;47.13;101029.84;7390204;19;20379;-60
2023/01/20 01:39:21;;;;;;;38.42;20.23;;;;;;;3.40;47.32;101039.06;7390039;19;20007;-60
2023/01/20 01:41:47;;;;;;;34.28;19.85;;;;;;;3.51;47.06;101040.59;7390584;19;19998;-60
2023/01/20 01:44:14;;;;;;;36.83;20.75;;;;;;;3.45;47.17;101039.03;7389148;19;19999;-60
2023/01/20 01:46:41;;;;;;;36.60;19.23;;;;;;;3.47;47.04;101040.34;7389896;19;20123;-60
2023/01/20 01:49:14;;;;;;;37.10;21.48;;;;;;;3.45;46.99;101037.16;7389963;19;20089;-60
2023/01/20 01:51:51;;;;;;;36.80;20.95;;;;;;;3.46;46.92;101043.34;7390121;19;20467;-59
2023/01/20 01:54:22;;;;;;;39.45;21.25;;;;;;;3.26;47.25;101055.91;7387952;19;20471;-60
2023/01/20 01:56:49;;;;;;;38.42;21.15;;;;;;;3.26;47.38;101055.13;7393946;19;20095;-60
2023/01/20 01:59:16;;;;;;;39.75;21.52;;;;;;;3.35;47.23;101054.22;7394931;19;20024;-61
2023/01/20 02:01:47;;;;;;;36.22;20.23;;;;;;;3.38;47.17;101057.44;7397272;19;20008;-61
2023/01/20 02:04:15;;;;;;;37.53;20.55;;;;;;;3.52;47.06;101063.78;7395613;19;19995;-61
2023/01/20 02:06:45;;;;;;;42.20;21.73;;;;;;;3.64;46.65;101066.88;7397052;19;20007;-61
2023/01/20 02:09:12;;;;;;;37.45;21.00;;;;;;;3.48;47.00;101070.84;7396841;19;20030;-61
2023/01/20 02:11:44;;;;;;;41.28;21.63;;;;;;;3.59;46.85;101083.13;7396971;19;20030;-61
2023/01/20 02:14:10;;;;;;;37.05;20.20;;;;;;;3.49;47.04;101085.94;7392525;19;20026;-61
2023/01/20 02:16:48;;;;;;;39.58;21.67;;;;;;;3.49;46.92;101078.66;7397100;19;20003;-62
2023/01/20 02:19:45;;;;;;;42.55;22.80;;;;;;;3.48;47.41;101087.03;7396269;19;20005;-61
2023/01/20 02:22:33;;;;;;;39.30;21.02;;;;;;;3.47;47.02;101088.09;7394818;19;20030;-62
2023/01/20 02:25:20;;;;;;;41.10;21.58;;;;;;;3.35;47.28;101094.69;7397406;19;20014;-61
2023/01/20 02:28:03;;;;;;;39.10;20.77;;;;;;;3.34;47.20;101094.97;7395858;19;20462;-60
2023/01/20 02:31:01;;;;;;;41.83;22.23;;;;;;;3.56;46.93;101099.91;7396231;19;20470;-61
2023/01/20 02:33:32;;;;;;;42.88;21.10;;;;;;;3.70;46.58;101117.03;7392249;19;19999;-62
2023/01/20 02:36:05;;;;;;;38.97;21.02;;;;;;;3.77;46.49;101107.78;7396607;19;19999;-61
2023/01/20 02:39:08;;;;;;;39.70;20.60;;;;;;;3.60;46.92;101109.03;7396366;19;20031;-59
2023/01/20 02:41:42;;;;;;;38.03;20.42;;;;;;;3.48;47.00;101117.50;7396263;19;20002;-59
2023/01/20 02:44:14;;;;;;;;;;;;;;;3.55;47.22;101121.78;7394544;19;20009;-60
2023/01/20 02:46:49;;;;;;;38.08;19.98;;;;;;;3.79;46.60;101127.22;7395463;19;20657;-59
2023/01/20 02:49:31;;;;;;;44.13;20.65;;;;;;;3.85;46.20;101131.44;7394116;19;20003;-60
2023/01/20 02:52:23;;;;;;;40.97;20.83;;;;;;;3.74;46.64;101132.66;7395855;19;20010;-60
2023/01/20 02:54:53;;;;;;;40.58;21.48;;;;;;;3.57;46.91;101136.63;7394268;19;19999;-58
2023/01/20 02:57:31;;;;;;;37.38;20.02;;;;;;;3.76;46.60;101133.97;7394810;19;20406;-60
2023/01/20 03:00:04;;;;;;;40.67;20.83;;;;;;;3.81;46.50;101127.72;7394266;19;20009;-59
2023/01/20 03:02:33;;;;;;;38.53;20.88;;;;;;;3.57;46.79;101133.09;7395561;19;20015;-59
2023/01/20 03:05:08;;;;;;;39.75;19.50;;;;;;;3.52;47.20;101131.28;7395391;19;19998;-60
2023/01/20 03:07:38;;;;;;;39.10;19.38;;;;;;;3.54;46.95;101145.28;7394578;19;20007;-59
2023/01/20 03:10:08;;;;;;;36.45;19.88;;;;;;;3.61;47.00;101153.03;7395504;19;20104;-59
2023/01/20 03:12:41;;;;;;;34.67;18.63;;;;;;;3.68;46.80;101157.00;7395173;19;20014;-59
2023/01/20 03:15:08;;;;;;;38.60;18.77;;;;;;;3.65;46.68;101154.91;7393135;19;20017;-59
2023/01/20 03:17:34;;;;;;;37.45;19.35;;;;;;;3.69;46.66;101161.31;7392674;19;20474;-59
2023/01/20 03:20:00;;;;;;;33.15;17.75;;;;;;;3.63;46.60;101157.06;7394510;19;20007;-59
2023/01/20 03:22:28;;;;;;;39.25;19.80;;;;;;;3.65;46.77;101171.09;7394187;19;20062;-60
2023/01/20 03:24:56;;;;;;;35.53;18.90;;;;;;;3.76;46.53;101171.78;7395620;19;20003;-59
2023/01/20 03:27:23;;;;;;;35.35;19.40;;;;;;;3.75;46.52;101161.25;7393859;19;19991;-60
2023/01/20 03:29:48;;;;;;;36.10;19.13;;;;;;;3.80;46.48;101164.69;7393738;19;20002;-61
2023/01/20 03:32:14;;;;;;;38.53;19.77;;;;;;;3.79;46.68;101173.13;7394640;19;20006;-60
2023/01/20 03:34:42;;;;;;;37.53;18.48;;;;;;;3.51;47.03;101164.75;7394641;19;20002;-60
2023/01/20 03:37:11;;;;;;;36.72;19.02;;;;;;;3.76;46.64;101176.38;7394564;19;20064;-60
2023/01/20 03:39:38;;;;;;;35.40;19.05;;;;;;;3.75;46.45;101175.56;7393801;19;20014;-60
2023/01/20 03:42:22;;;;;;;36.35;18.55;;;;;;;3.66;46.73;101183.47;7394178;19;19999;-60
2023/01/20 03:44:57;;;;;;;32.83;17.30;;;;;;;3.28;47.41;101177.84;7394329;19;19999;-61
2023/01/20 03:47:44;;;;;;;31.77;16.95;;;;;;;3.47;47.06;101177.16;7391931;19;19994;-60
2023/01/20 03:50:36;;;;;;;33.45;18.50;;;;;;;3.62;46.72;101177.06;7394104;19;20360;-60
2023/01/20 03:53:11;;;;;;;33.25;16.90;;;;;;;3.74;46.37;101192.88;7393065;19;20020;-59
2023/01/20 03:55:48;;;;;;;31.42;17.35;;;;;;;3.76;46.25;101198.78;7394718;19;20002;-59
2023/01/20 03:58:21;;;;;;;32.00;15.98;;;;;;;3.64;46.31;101196.47;7390543;19;19998;-60
2023/01/20 04:00:49;;;;;;;33.20;15.70;;;;;;;3.68;46.17;101200.19;7390859;19;20005;-60
2023/01/20 04:03:20;;;;;;;30.80;15.48;;;;;;;3.81;46.13;101204.13;7392830;19;20010;-60
2023/01/20 04:05:47;;;;;;;29.27;15.35;;;;;;;3.71;46.23;101188.84;7393565;19;20007;-60
2023/01/20 04:08:16;;;;;;;29.13;15.70;;;;;;;3.92;45.84;101194.03;7391726;19;20424;-60
2023/01/20 04:10:45;;;;;;;33.05;16.70;;;;;;;3.96;45.72;101197.78;7394035;19;20006;-61
2023/01/20 04:13:11;;;;;;;32.63;16.77;;;;;;;3.69;46.31;101192.91;7390872;19;20006;-58
2023/01/20 04:15:43;;;;;;;30.73;15.93;;;;;;;3.56;46.55;101198.97;7391619;19;19995;-59
2023/01/20 04:18:13;;;;;;;32.63;16.38;;;;;;;3.81;45.75;101195.22;7391928;19;19998;-59
2023/01/20 04:20:40;;;;;;;32.50;15.57;;;;;;;3.66;46.45;101205.06;7390865;19;19997;-59
2023/01/20 04:23:09;;;;;;;29.60;15.70;;;;;;;3.84;45.96;101205.47;7392874;19;20141;-60
2023/01/20 04:25:35;;;;;;;29.88;15.35;;;;;;;3.93;45.91;101203.75;7391328;19;19995;-60
2023/01/20 04:28:01;;;;;;;31.20;15.52;;;;;;;3.92;45.81;101199.44;7391839;19;19995;-60
2023/01/20 04:30:27;;;;;;;33.00;15.73;;;;;;;3.61;46.50;101207.81;7393457;19;19998;-60
2023/01/20 04:32:53;;;;;;;27.10;15.20;;;;;;;3.73;46.38;101206.66;7391713;19;20022;-59
2023/01/20 04:35:19;;;;;;;30.83;15.38;;;;;;;4.04;45.70;101202.53;7392452;19;20002;-59
2023/01/20 04:37:45;;;;;;;28.88;15.02;;;;;;;4.04;45.63;101204.44;7392344;19;19995;-59
2023/01/20 04:40:11;;;;;;;27.63;13.77;;;;;;;3.84;45.71;101211.66;7391617;19;19998;-60
2023/01/20 04:42:37;;;;;;;25.73;14.35;;;;;;;3.75;46.15;101204.47;7389928;19;20022;-58
2023/01/20 04:45:03;;;;;;;29.05;14.82;;;;;;;3.92;45.74;101210.25;7390474;19;20372;-60
2023/01/20 04:47:30;;;;;;;29.73;15.15;;;;;;;3.81;45.96;101206.03;7390022;19;20002;-58
2023/01/20 04:49:56;;;;;;;24.77;13.48;;;;;;;3.84;45.78;101208.16;7393173;19;19999;-57
2023/01/20 04:52:22;;;;;;;29.05;14.15;;;;;;;3.88;45.66;101218.09;7392741;19;20006;-58
2023/01/20 04:54:48;;;;;;;26.20;13.32;;;;;;;3.83;45.76;101211.94;7391480;19;19999;-58
2023/01/20 04:57:14;;;;;;;27.27;13.85;;;;;;;3.95;45.47;101215.06;7391578;19;20006;-58
2023/01/20 04:59:41;;;;;;;27.45;13.93;;;;;;;4.06;45.44;101221.97;7390956;19;20082;-60
2023/01/20 05:02:07;;;;;;;27.42;13.80;;;;;;;3.63;45.94;101227.25;7391847;19;20400;-59
2023/01/20 05:04:32;;;;;;;26.58;13.63;;;;;;;3.93;45.69;101225.34;7391465;19;20003;-60
2023/01/20 05:06:58;;;;;;;27.17;13.90;;;;;;;4.01;45.27;101232.81;7391398;19;20106;-60
2023/01/20 05:09:24;;;;;;;28.10;13.77;;;;;;;3.90;45.32;101234.00;7390955;19;19995;-59
2023/01/20 05:11:50;;;;;;;24.40;12.95;;;;;;;4.03;45.20;101241.44;7391756;19;20003;-60
2023/01/20 05:14:15;;;;;;;29.23;13.60;;;;;;;4.03;45.15;101246.06;7388813;19;20017;-60
2023/01/20 05:16:41;;;;;;;29.17;13.98;;;;;;;4.09;44.87;101240.31;7391822;19;20309;-60
2023/01/20 05:19:10;;;;;;;26.02;14.00;;;;;;;4.09;45.10;101239.50;7388658;19;20002;-60
2023/01/20 05:21:36;;;;;;;30.10;13.75;;;;;;;3.78;45.44;101242.50;7391815;19;20007;-60
2023/01/20 05:24:01;;;;;;;25.08;14.10;;;;;;;3.88;45.51;101242.41;7389340;19;20009;-60
2023/01/20 05:26:27;;;;;;;26.67;13.98;;;;;;;3.54;46.02;101245.16;7389401;19;20015;-61
2023/01/20 05:28:53;;;;;;;27.00;13.90;;;;;;;3.73;45.89;101245.25;7390430;19;20070;-59
2023/01/20 05:31:19;;;;;;;28.13;14.85;;;;;;;3.94;45.39;101251.28;7394022;19;20003;-60
2023/01/20 05:33:44;;;;;;;30.27;14.50;;;;;;;4.09;45.26;101256.53;7395014;19;20026;-61
2023/01/20 05:36:11;;;;;;;28.15;14.23;;;;;;;4.00;45.27;101263.63;7399160;19;20006;-61
2023/01/20 05:38:37;;;;;;;27.00;13.77;;;;;;;3.99;45.26;101261.22;7397732;19;19998;-61
2023/01/20 05:41:05;;;;;;;27.42;14.05;;;;;;;3.94;45.13;101264.78;7394888;19;20010;-60
2023/01/20 05:43:31;;;;;;;28.25;14.43;;;;;;;4.09;45.22;101267.31;7395880;19;20002;-61
2023/01/20 05:45:57;;;;;;;27.30;13.40;;;;;;;4.14;45.18;101262.94;7397867;19;20490;-61
2023/01/20 05:48:24;;;;;;;29.45;15.00;;;;;;;4.17;44.79;101271.31;7396178;19;20008;-59
2023/01/20 05:50:50;;;;;;;30.80;14.77;;;;;;;4.19;44.97;101271.81;7398133;19;20006;-61
2023/01/20 05:53:16;;;;;;;28.55;14.18;;;;;;;4.20;44.77;101278.81;7396790;19;19995;-60
2023/01/20 05:55:42;;;;;;;29.67;14.55;;;;;;;4.12;44.93;101284.06;7397270;19;20014;-61
2023/01/20 05:58:08;;;;;;;29.27;14.02;;;;;;;4.03;45.23;101295.47;7397608;19;20006;-60
2023/01/20 06:00:35;;;;;;;30.35;14.52;;;;;;;4.08;45.29;101290.00;7395716;19;20609;-58
2023/01/20 06:03:00;;;;;;;29.08;14.85;;;;;;;4.27;44.82;101297.41;7397125;19;20011;-58
2023/01/20 06:05:27;;;;;;;28.08;14.23;;;;;;;4.23;44.70;101304.47;7394597;19;20418;-59
2023/01/20 06:07:55;;;;;;;28.20;13.95;;;;;;;4.19;45.05;101300.75;7396589;19;19999;-59
2023/01/20 06:10:26;;;;;;;31.40;14.25;;;;;;;4.22;44.93;101302.84;7396518;19;20338;-59
2023/01/20 06:12:56;;;;;;;29.27;14.00;;;;;;;4.17;45.06;101311.00;7396569;19;20753;-58
2023/01/20 06:15:23;;;;;;;28.70;14.82;;;;;;;4.20;45.03;101315.84;7393854;19;20129;-59
2023/01/20 06:17:50;;;;;;;28.25;13.48;;;;;;;4.27;44.87;101319.00;7396021;19;19995;-58
2023/01/20 06:20:16;;;;;;;28.02;14.23;;;;;;;4.45;44.40;101318.31;7393415;19;20003;-58
2023/01/20 06:22:42;;;;;;;26.02;14.10;;;;;;;4.44;44.55;101321.31;7395541;19;20013;-59
2023/01/20 06:25:08;;;;;;;29.08;14.68;;;;;;;4.40;44.46;101321.03;7395580;19;19994;-58
2023/01/20 06:27:34;;;;;;;27.08;13.48;;;;;;;4.28;44.94;101323.34;7395450;19;20485;-59
2023/01/20 06:29:59;;;;;;;29.70;14.23;;;;;;;4.34;44.78;101321.38;7394523;19;19994;-58
2023/01/20 06:32:25;;;;;;;29.90;14.48;;;;;;;4.29;44.82;101327.66;7394084;19;20003;-59
2023/01/20 06:34:52;;;;;;;28.75;14.63;;;;;;;4.44;44.43;101327.50;7396662;19;20069;-61
2023/01/20 06:37:18;;;;;;;31.10;15.15;;;;;;;4.45;44.46;101334.53;7395343;19;19999;-59
2023/01/20 06:39:44;;;;;;;27.75;15.40;;;;;;;4.39;44.54;101330.25;7395095;19;20058;-58
2023/01/20 06:42:10;;;;;;;30.20;15.43;;;;;;;4.31;44.92;101340.91;7394666;19;19998;-58
2023/01/20 06:44:35;;;;;;;27.08;14.30;;;;;;;4.42;44.60;101337.81;7396163;19;20467;-58
2023/01/20 06:47:01;;;;;;;35.22;16.10;;;;;;;4.36;44.76;101341.63;7395411;19;19998;-59
2023/01/20 06:49:27;;;;;;;30.20;15.02;;;;;;;4.20;45.09;101345.56;7396211;19;20382;-59
2023/01/20 06:51:53;;;;;;;28.75;14.98;;;;;;;4.09;45.53;101339.47;7396190;19;20329;-59
2023/01/20 06:54:19;;;;;;;26.77;15.18;;;;;;;4.21;45.08;101350.69;7393315;19;20002;-58
2023/01/20 06:56:45;;;;;;;28.02;14.85;;;;;;;4.22;44.86;101348.78;7394846;19;19999;-59
2023/01/20 06:59:11;;;;;;;29.98;15.15;;;;;;;4.22;45.16;101354.19;7394968;19;19987;-59
2023/01/20 07:01:37;;;;;;;29.50;15.23;;;;;;;4.22;45.11;101356.91;7395590;19;20340;-59
2023/01/20 07:04:02;;;;;;;28.40;15.00;;;;;;;4.21;45.15;101356.09;7393227;19;20081;-59
2023/01/20 07:06:33;;;;;;;31.58;15.90;;;;;;;4.14;45.45;101365.63;7395626;19;20062;-59
2023/01/20 07:09:01;;;;;;;27.20;14.48;;;;;;;4.26;45.08;101366.88;7394201;19;20002;-59
2023/01/20 07:11:30;;;;;;;30.17;14.90;;;;;;;4.36;44.93;101365.97;7395853;19;20002;-59
2023/01/20 07:13:56;;;;;;;29.33;15.23;;;;;;;4.33;45.03;101376.53;7392439;19;20025;-59
2023/01/20 07:16:22;;;;;;;29.77;15.48;;;;;;;4.31;45.16;101382.22;7396533;19;20025;-58
2023/01/20 07:18:50;;;;;;;28.88;15.23;;;;;;;4.36;45.14;101379.47;7392135;19;20058;-59
2023/01/20 07:21:35;;;;;;;28.88;14.80;;;;;;;4.27;45.06;101386.56;7395315;19;20048;-59
2023/01/20 07:24:19;;;;;;;29.95;15.40;;;;;;;4.33;45.10;101382.75;7390909;19;20008;-59
2023/01/20 07:26:45;;;;;;;30.23;15.52;;;;;;;4.27;45.23;101400.09;7397286;19;20470;-58
2023/01/20 07:29:11;;;;;;;29.38;14.85;;;;;;;4.30;45.05;101393.31;7393583;19;20002;-58
2023/01/20 07:31:37;;;;;;;35.67;16.30;;;;;;;4.38;44.78;101404.31;7394429;19;20010;-58
2023/01/20 07:34:03;;;;;;;31.40;16.17;;;;;;;4.37;44.98;101408.13;7389501;19;20484;-59
2023/01/20 07:36:28;;;;;;;30.60;15.80;;;;;;;4.37;44.96;101410.84;7394459;19;20062;-59
2023/01/20 07:38:54;;;;;;;27.83;15.85;;;;;;;4.40;44.98;101412.16;7394054;19;19998;-59
2023/01/20 07:41:21;;;;;;;32.25;16.20;;;;;;;4.40;44.96;101410.25;7391693;19;19998;-58
2023/01/20 07:43:48;;;;;;;30.90;15.40;;;;;;;4.36;45.08;101419.22;7392887;19;20000;-59
2023/01/20 07:46:14;;;;;;;31.63;15.13;;;;;;;4.20;45.33;101415.84;7393822;19;20063;-61
2023/01/20 07:48:40;;;;;;;32.90;15.63;;;;;;;4.44;44.94;101424.03;7393130;19;19998;-59
2023/01/20 07:51:08;;;;;;;33.85;16.33;;;;;;;4.48;44.80;101427.75;7391677;19;20003;-58
2023/01/20 07:53:37;;;;;;;30.20;15.35;;;;;;;4.49;44.68;101431.25;7389877;19;20050;-59
2023/01/20 07:56:16;;;;;;;29.88;15.50;;;;;;;4.48;44.76;101433.16;7391501;19;19998;-59
2023/01/20 07:58:45;;;;;;;30.92;15.40;;;;;;;4.32;45.25;101445.19;7393203;19;20010;-59
2023/01/20 08:01:16;;;;;;;28.85;14.88;;;;;;;4.44;44.85;101451.84;7389471;19;19999;-58
2023/01/20 08:03:43;;;;;;;27.38;14.02;;;;;;;4.50;44.97;101458.00;7391917;19;19994;-59
2023/01/20 08:06:11;;;;;;;30.40;14.95;;;;;;;4.50;44.87;101459.91;7393087;19;19994;-58
2023/01/20 08:08:38;;;;;;;29.75;15.52;;;;;;;4.50;44.94;101462.63;7393162;19;20026;-57
2023/01/20 08:11:06;;;;;;;33.55;16.23;;;;;;;4.62;44.85;101473.84;7393249;19;20005;-58
2023/01/20 08:13:32;;;;;;;29.27;15.57;;;;;;;4.70;44.57;101481.34;7391063;19;20471;-58
2023/01/20 08:15:59;;;;;;;29.58;15.30;;;;;;;4.72;44.54;101483.78;7390939;19;20018;-58
2023/01/20 08:18:26;;;;;;;28.15;15.40;;;;;;;4.63;44.56;101491.72;7392095;19;20054;-58
2023/01/20 08:20:51;;;;;;;27.80;14.73;;;;;;;4.60;44.75;101486.88;7391829;19;19998;-58
2023/01/20 08:23:17;;;;;;;28.85;15.00;;;;;;;4.57;44.62;101495.53;7391133;19;19995;-58
2023/01/20 08:25:43;;;;;;;31.10;14.60;;;;;;;4.60;44.65;101495.78;7392934;19;20013;-58
2023/01/20 08:28:09;;;;;;;31.02;16.17;;;;;;;4.65;44.69;101497.63;7391127;19;20487;-59
2023/01/20 08:30:35;;;;;;;30.08;15.88;;;;;;;4.67;44.74;101502.75;7393083;19;20015;-59
2023/01/20 08:33:01;;;;;;;27.95;15.15;;;;;;;4.71;44.48;101507.31;7391403;19;20086;-58
2023/01/20 08:35:27;;;;;;;28.42;14.93;;;;;;;4.55;44.82;101508.53;7392162;19;20003;-58
2023/01/20 08:37:53;;;;;;;29.02;14.95;;;;;;;4.60;44.79;101506.59;7391123;19;20008;-58
2023/01/20 08:40:28;;;;;;;29.30;15.05;;;;;;;4.75;44.69;101515.66;7390357;19;20023;-58
2023/01/20 08:42:54;;;;;;;26.13;13.95;;;;;;;4.78;44.50;101515.09;7391171;19;20002;-58
2023/01/20 08:45:19;;;;;;;29.80;14.77;;;;;;;4.81;44.36;101514.53;7391483;19;20002;-58
2023/01/20 08:47:45;;;;;;;28.10;14.55;;;;;;;4.86;44.20;101527.22;7389611;19;20478;-60
2023/01/20 08:50:13;;;;;;;27.60;14.05;;;;;;;4.77;44.21;101530.53;7391448;19;20026;-59
2023/01/20 08:52:41;;;;;;;26.48;13.88;;;;;;;4.90;44.18;101530.97;7391653;19;19999;-58
2023/01/20 08:55:08;;;;;;;31.50;15.15;;;;;;;4.91;44.11;101535.28;7391103;19;19998;-58
2023/01/20 08:57:34;;;;;;;32.22;15.63;;;;;;;4.94;44.17;101526.59;7390911;19;20007;-58
2023/01/20 09:00:00;;;;;;;27.17;14.45;;;;;;;5.05;43.92;101525.41;7390653;19;20013;-58
2023/01/20 09:02:26;;;;;;;27.17;14.05;;;;;;;4.91;43.91;101535.28;7389350;19;20007;-59
2023/01/20 09:04:51;;;;;;;26.42;13.38;;;;;;;4.96;44.05;101535.25;7390761;19;20660;-59
2023/01/20 09:07:18;;;;;;;27.83;14.05;;;;;;;4.80;44.04;101538.06;7391055;19;20002;-58
2023/01/20 09:09:45;;;;;;;29.40;14.52;;;;;;;4.88;44.07;101543.97;7390806;19;20002;-58
2023/01/20 09:12:11;;;;;;;24.30;13.52;;;;;;;4.78;44.02;101542.94;7391375;19;20395;-58
2023/01/20 09:14:50;;;;;;;28.65;13.85;;;;;;;4.88;43.86;101552.09;7389857;19;20020;-58
2023/01/20 09:17:16;;;;;;;29.60;14.38;;;;;;;4.96;43.52;101556.88;7390737;19;20018;-59
2023/01/20 09:19:41;;;;;;;28.60;13.68;;;;;;;5.03;43.50;101560.06;7390264;19;20002;-59
2023/01/20 09:22:07;;;;;;;25.42;11.95;;;;;;;5.11;43.26;101562.16;7389966;19;20006;-59
2023/01/20 09:24:33;;;;;;;26.52;13.15;;;;;;;5.06;43.19;101559.50;7390749;19;20002;-58
2023/01/20 09:26:58;;;;;;;27.67;13.40;;;;;;;5.05;43.08;101567.91;7389735;19;20002;-59
2023/01/20 09:29:25;;;;;;;27.27;12.93;;;;;;;5.14;42.90;101569.69;7390178;19;20016;-58
2023/01/20 09:31:56;;;;;;;26.75;12.73;;;;;;;5.13;42.89;101581.59;7390943;19;20002;-59
2023/01/20 09:34:26;;;;;;;26.10;13.27;;;;;;;5.28;42.85;101583.38;7387532;19;20073;-58
2023/01/20 09:36:54;;;;;;;24.55;13.13;;;;;;;5.36;42.74;101584.69;7389382;19;20324;-58
2023/01/20 09:45:31;;;;;;;27.33;13.55;;;;;;;5.23;43.09;101593.44;7390640;19;19999;-59
2023/01/20 09:48:12;;;;;;;26.35;13.63;;;;;;;5.20;43.22;101600.22;7389940;19;19998;-58
2023/01/20 09:53:59;;;;;;;30.35;14.98;;;;;;;5.06;43.61;101615.53;7384343;19;20494;-58
2023/01/20 09:56:26;;;;;;;30.48;14.82;;;;;;;5.20;43.45;101613.75;7390256;19;19998;-58
2023/01/20 09:58:59;;;;;;;28.45;14.48;;;;;;;5.27;43.43;101626.97;7388432;19;19995;-59
2023/01/20 10:01:35;;;;;;;29.23;14.38;;;;;;;5.33;43.08;101623.16;7388392;19;20002;-58
2023/01/20 10:04:08;;;;;;;30.95;15.05;;;;;;;5.29;43.48;101624.75;7388109;19;20002;-59
2023/01/20 10:06:41;;;;;;;28.67;13.88;;;;;;;5.24;43.43;101622.09;7388434;19;20343;-58
2023/01/20 10:09:40;;;;;;;29.17;15.15;;;;;;;5.26;43.34;101628.88;7389646;19;20026;-59
2023/01/20 10:12:28;;;;;;;26.52;13.25;;;;;;;5.30;43.13;101623.69;7389834;19;20006;-58
2023/01/20 10:15:07;;;;;;;26.58;13.82;;;;;;;5.42;42.88;101629.53;7387869;19;20470;-57
2023/01/20 10:17:41;;;;;;;28.40;13.95;;;;;;;5.35;42.91;101632.59;7391854;19;20006;-57
2023/01/20 10:20:14;;;;;;;26.90;12.60;;;;;;;5.35;42.78;101631.78;7394384;19;19999;-58
2023/01/20 10:22:46;;;;;;;27.25;12.88;;;;;;;5.38;42.33;101632.03;7394007;19;20009;-57
2023/01/20 10:25:21;;;;;;;24.10;12.70;;;;;;;5.39;42.22;101627.44;7396180;19;19995;-58
2023/01/20 10:28:08;;;;;;;27.10;12.85;;;;;;;5.52;42.08;101634.88;7395369;19;20074;-58
2023/01/20 10:30:36;;;;;;;26.20;12.52;;;;;;;5.52;42.08;101634.88;7396307;19;20342;-59
2023/01/20 10:33:24;;;;;;;28.42;13.85;;;;;;;5.55;42.01;101625.38;7393264;19;20374;-59
2023/01/20 10:35:53;;;;;;;27.63;14.25;;;;;;;5.56;41.90;101641.34;7396170;19;20010;-59
2023/01/20 10:38:33;;;;;;;24.88;12.88;;;;;;;5.70;41.74;101627.91;7396195;19;20066;-57
2023/01/20 10:41:08;;;;;;;26.38;12.35;;;;;;;5.66;41.82;101628.75;7393397;19;19998;-59
2023/01/20 10:43:33;;;;;;;26.25;12.52;;;;;;;5.64;41.87;101631.78;7393198;19;20003;-59
2023/01/20 10:46:17;;;;;;;26.25;13.73;;;;;;;5.66;41.96;101635.00;7395522;19;20399;-59
2023/01/20 10:49:17;;;;;;;24.63;13.30;;;;;;;5.52;41.85;101632.19;7395203;19;20002;-58
2023/01/20 10:51:58;;;;;;;27.35;13.27;;;;;;;5.67;41.63;101636.59;7395671;19;20247;-57
2023/01/20 10:54:42;;;;;;;27.30;13.82;;;;;;;5.61;41.50;101650.47;7395185;19;20532;-58
2023/01/20 10:57:12;;;;;;;23.88;13.00;;;;;;;5.73;41.67;101634.66;7395018;19;20002;-58
2023/01/20 10:59:46;;;;;;;28.40;14.07;;;;;;;5.78;41.76;101639.22;7393046;19;20090;-59
2023/01/20 11:02:15;;;;;;;27.88;15.13;;;;;;;5.83;41.47;101637.25;7395061;19;20470;-57
2023/01/20 11:04:40;;;;;;;27.83;14.60;;;;;;;5.72;41.83;101643.88;7395324;19;19995;-58
2023/01/20 11:07:16;;;;;;;27.88;13.93;;;;;;;5.85;41.45;101635.06;7395431;19;20021;-57
2023/01/20 11:09:43;;;;;;;25.38;13.23;;;;;;;5.69;41.75;101647.16;7395188;19;20091;-58
2023/01/20 11:12:13;;;;;;;25.52;13.70;;;;;;;5.69;41.72;101647.16;7395016;19;20010;-58
2023/01/20 11:14:40;;;;;;;24.00;12.13;;;;;;;5.64;41.74;101656.16;7393618;19;20015;-59
2023/01/20 11:17:11;;;;;;;25.40;12.90;;;;;;;5.58;41.61;101651.88;7394792;19;20041;-58
2023/01/20 11:19:52;;;;;;;28.17;13.10;;;;;;;5.49;41.62;101659.81;7392217;19;20003;-58
2023/01/20 11:22:24;;;;;;;28.00;13.10;;;;;;;5.37;41.41;101662.09;7397545;19;19998;-59
2023/01/20 11:24:54;;;;;;;25.70;12.35;;;;;;;5.29;41.91;101666.19;7394721;19;19998;-58
2023/01/20 11:27:24;;;;;;;25.17;12.15;;;;;;;5.42;41.47;101677.47;7393365;19;20014;-58
2023/01/20 11:30:05;;;;;;;25.58;12.50;;;;;;;5.47;40.84;101672.03;7391420;19;20070;-58
2023/01/20 11:32:37;;;;;;;24.60;11.48;;;;;;;5.43;41.24;101681.81;7394544;19;20436;-57
2023/01/20 11:35:23;;;;;;;24.27;12.25;;;;;;;5.64;41.09;101677.81;7392004;19;19995;-59
2023/01/20 11:37:49;;;;;;;24.42;11.45;;;;;;;5.62;41.04;101693.53;7393889;19;20042;-58